Meymac - Mt Bessou (19) - I

Date : 08/04/2012

Place Nom Licence Catégorie Club Temps CN à J-60 Points Différence Nouveau CN
1 DROIN Solène 17925 D16 4201RA 0:33:18 4634 5086 +452 5059
2 BODY Mathilde 10184 D16 7305RA 0:33:26 5413 5066 -347 5501
3 GUILLEMET Océane 22819 D16 3318AQ 0:33:43 3212 5023 +1811 4805
4 HABERKORN Chloé 10396 D16 2105BO 0:35:19 5413 4796 -617 5746
5 BEAUVIR Maëlle 12709 D16 3502BR 0:35:48 4492 4731 +239 5174
6 BORNARD Julie 9402 D16 7305RA 0:36:48 4337 4602 +265 4629
7 ROULLEAUX Julie 11559 D16 9105IF 0:36:48 5407 4602 -805 5587
8 GIRARD Lucille 19689 D16 3705CE 0:37:43 5105 4490 -615 5105
9 RIVOLLIER Isaline 22451 D16 4201RA 0:37:50 3898 4477 +579 4395
10 BERRARD Anna 19762 D16 2607RA 0:41:26 3885 4088 +203 4166
11 FOL Loreline 16393 D16 3105MP 0:42:05 3325 4024 +699 3947
12 LUTHRINGER Coline 10091 D16 8809LO 0:42:13 4352 4012 -340 4397
13 CHARDOT Marion 22315 D16 7807IF 0:42:40 4021 3969 -52 4032
14 VALETTE Marion 10430 D16 6913RA 0:43:55 3633 3856 +223 4153
15 PICAZO Marie 16555 D16 8405PR 0:44:04 4259 3843 -416 4259
16 DUQUENNE Audrey 23885 D16 5907NO 0:44:28 3535 3809 +274 4000
17 PETER-JAN Lucile 19276 D16 3705CE 0:45:02 4983 3761 -1222 4983
18 DELENNE Camilla 13800 D16 1307PR 0:45:08 3808 3753 -55 4063
19 PINZELLI Tamara 23551 D16 1905LI 0:51:50 2776 3267 +491 3289
20 MOUSSU Sarah 22301 D16 3318AQ 0:52:24 2527 3232 +705 3165
21 BLANCHARD Grégorine 11530 D21 3705CE 0:53:50 2654 3146 +492 2936
22 BONORA Marine 11542 D16 6906RA 0:59:25 3743 2850 -893 3865
23 LEMERCIER Victoire 11454 D16 5407LO 0:59:53 3643 2828 -815 3712
24 MASSIN Margot 22860 D16 5907NO 1:07:50 2739 2497 -242 3515
25 VERNOTTE Louise 23552 D16 1905LI 1:12:51 2917 2325 -592 3211
PENAUD Romane 14110 D16 1905LI abandon 0 0 1757